Tabor, Illinois
Current Conditions -  °F | °C
As of 8:55 AM on Tuesday 21 Oct 2014 (Local Time) from KAAA Reporting Station
Clear Clear  
Wind Chill: 47°   Ceiling: Unl
Heat Index: 49°   Visibility: 10mi
Dew Point: 44°   Wind: 6mph
Humidity: 82%   Direction: 360°N
Pressure: 30.14"   Gusts: NA
Location:  40.252°N, 89.091°W
Report Text: KAAA 211355Z AUTO 36005KT 10SM CLR 09/07 A3014 RMK AO2 T00940065
Loading
Personal Weather Stations






























Interactive Weather Map
Tropical Storm Tracking
New forecast layout! Learn more

10-Day Weather Forecast

Advertisements
Track Severe Weather on mobile